PWSweather.com
Personal Weather Stations
Station Observations
METEOC500
Santo Antonio, FunchalPT 2020

Santo AntonioFunchalPT 2020

Lat: 32.678227, Lon: -16.945054

Elevation: 1669.94751

Station Type: WH Series

High Low Average
Temperature 76.1°F24.5°C 63.1°F17.3°C 68.0°F20.0°C
Dew Point 65.8°F18.8°C 56.7°F13.7°C 60.6°F15.9°C
Winds 11.0 mph 17.7 kmh Calm Calm 4.0 mph WSW6.4 kmh WSW
Wind Gusts 20.1 mph32.3 kmh 2.5 mph4.0 kmh 9.0 mph14.5 kmh
Humidity 87% 59% 78%
Pressure 30.11 in1019.6 mb 30.00 in1015.9 mb -
Precipitation 0.00 in0.0 mm - -
Hour Temp Dew Point Humidity Winds Wind Gusts Pressure Precip Precip Rate Daily Precip Total
12:11 AM 64.9°F18.3°C 60.6°F15.9°C 86% 4.0 mph NNW6.4 kmh NNW 7.6 mph12.2 kmh 30.11 in1019.6 mb 0.00 in0.0 mm 0.00 in0.0 mm 0.00 in0.0 mm
12:26 AM 64.9°F18.3°C 61.0°F16.1°C 87% 5.4 mph NNW8.7 kmh NNW 7.6 mph12.2 kmh 30.10 in1019.3 mb 0.00 in0.0 mm 0.00 in0.0 mm 0.00 in0.0 mm
12:41 AM 64.8°F18.2°C 60.8°F16.0°C 87% 2.5 mph NNW4.0 kmh NNW 7.6 mph12.2 kmh 30.10 in1019.3 mb 0.00 in0.0 mm 0.00 in0.0 mm 0.00 in0.0 mm
12:56 AM 64.8°F18.2°C 60.4°F15.8°C 86% 5.6 mph NW9.0 kmh NW 7.6 mph12.2 kmh 30.10 in1019.3 mb 0.00 in0.0 mm 0.00 in0.0 mm 0.00 in0.0 mm
01:11 AM 64.8°F18.2°C 60.8°F16.0°C 87% 4.7 mph NNW7.6 kmh NNW 7.6 mph12.2 kmh 30.09 in1019.0 mb 0.00 in0.0 mm 0.00 in0.0 mm 0.00 in0.0 mm
01:26 AM 64.8°F18.2°C 60.4°F15.8°C 86% 4.7 mph NNW7.6 kmh NNW 10.1 mph16.3 kmh 30.09 in1019.0 mb 0.00 in0.0 mm 0.00 in0.0 mm 0.00 in0.0 mm
01:41 AM 64.8°F18.2°C 59.9°F15.5°C 84% 7.6 mph NNW12.2 kmh NNW 10.1 mph16.3 kmh 30.09 in1019.0 mb 0.00 in0.0 mm 0.00 in0.0 mm 0.00 in0.0 mm
01:56 AM 64.6°F18.1°C 59.7°F15.4°C 84% 3.4 mph N5.5 kmh N 10.1 mph16.3 kmh 30.09 in1019.0 mb 0.00 in0.0 mm 0.00 in0.0 mm 0.00 in0.0 mm
02:11 AM 64.6°F18.1°C 59.7°F15.4°C 84% 5.6 mph N9.0 kmh N 10.1 mph16.3 kmh 30.08 in1018.6 mb 0.00 in0.0 mm 0.00 in0.0 mm 0.00 in0.0 mm
02:26 AM 64.4°F18.0°C 59.5°F15.3°C 84% 4.5 mph NNW7.2 kmh NNW 7.6 mph12.2 kmh 30.08 in1018.6 mb 0.00 in0.0 mm 0.00 in0.0 mm 0.00 in0.0 mm
02:41 AM 64.2°F17.9°C 59.4°F15.2°C 84% 4.5 mph NNW7.2 kmh NNW 7.6 mph12.2 kmh 30.07 in1018.3 mb 0.00 in0.0 mm 0.00 in0.0 mm 0.00 in0.0 mm
02:56 AM 63.9°F17.7°C 59.2°F15.1°C 85% 4.7 mph N7.6 kmh N 10.1 mph16.3 kmh 30.06 in1017.9 mb 0.00 in0.0 mm 0.00 in0.0 mm 0.00 in0.0 mm
03:11 AM 63.9°F17.7°C 59.2°F15.1°C 85% 3.8 mph N6.1 kmh N 7.6 mph12.2 kmh 30.06 in1017.9 mb 0.00 in0.0 mm 0.00 in0.0 mm 0.00 in0.0 mm
03:26 AM 64.0°F17.8°C 59.4°F15.2°C 85% 4.5 mph NNW7.2 kmh NNW 10.1 mph16.3 kmh 30.06 in1017.9 mb 0.00 in0.0 mm 0.00 in0.0 mm 0.00 in0.0 mm
03:41 AM 64.0°F17.8°C 59.4°F15.2°C 85% 3.8 mph NNW6.1 kmh NNW 7.6 mph12.2 kmh 30.06 in1017.9 mb 0.00 in0.0 mm 0.00 in0.0 mm 0.00 in0.0 mm
03:56 AM 63.9°F17.7°C 59.0°F15.0°C 84% 3.1 mph N5.0 kmh N 7.6 mph12.2 kmh 30.06 in1017.9 mb 0.00 in0.0 mm 0.00 in0.0 mm 0.00 in0.0 mm
04:11 AM 63.7°F17.6°C 58.8°F14.9°C 84% 5.6 mph NNW9.0 kmh NNW 7.6 mph12.2 kmh 30.05 in1017.6 mb 0.00 in0.0 mm 0.00 in0.0 mm 0.00 in0.0 mm
04:26 AM 63.9°F17.7°C 58.6°F14.8°C 83% 3.8 mph NNW6.1 kmh NNW 7.6 mph12.2 kmh 30.06 in1017.9 mb 0.00 in0.0 mm 0.00 in0.0 mm 0.00 in0.0 mm
04:41 AM 63.7°F17.6°C 59.0°F15.0°C 85% 4.0 mph NNW6.4 kmh NNW 7.6 mph12.2 kmh 30.05 in1017.6 mb 0.00 in0.0 mm 0.00 in0.0 mm 0.00 in0.0 mm
04:56 AM 63.3°F17.4°C 58.8°F14.9°C 85% 3.4 mph NNW5.5 kmh NNW 7.6 mph12.2 kmh 30.06 in1017.9 mb 0.00 in0.0 mm 0.00 in0.0 mm 0.00 in0.0 mm
05:11 AM 63.1°F17.3°C 58.6°F14.8°C 85% 4.7 mph NNW7.6 kmh NNW 7.6 mph12.2 kmh 30.06 in1017.9 mb 0.00 in0.0 mm 0.00 in0.0 mm 0.00 in0.0 mm
05:27 AM 63.3°F17.4°C 58.8°F14.9°C 85% 1.8 mph NNW2.9 kmh NNW 7.6 mph12.2 kmh 30.05 in1017.6 mb 0.00 in0.0 mm 0.00 in0.0 mm 0.00 in0.0 mm
05:42 AM 63.9°F17.7°C 59.0°F15.0°C 84% 3.1 mph NNW5.0 kmh NNW 7.6 mph12.2 kmh 30.06 in1017.9 mb 0.00 in0.0 mm 0.00 in0.0 mm 0.00 in0.0 mm
05:57 AM 64.2°F17.9°C 59.4°F15.2°C 84% 3.4 mph NNW5.5 kmh NNW 7.6 mph12.2 kmh 30.05 in1017.6 mb 0.00 in0.0 mm 0.00 in0.0 mm 0.00 in0.0 mm
06:12 AM 64.4°F18.0°C 59.7°F15.4°C 85% 1.6 mph NNW2.6 kmh NNW 7.6 mph12.2 kmh 30.06 in1017.9 mb 0.00 in0.0 mm 0.00 in0.0 mm 0.00 in0.0 mm
06:27 AM 64.4°F18.0°C 59.7°F15.4°C 85% 2.2 mph NNW3.5 kmh NNW 4.9 mph7.9 kmh 30.06 in1017.9 mb 0.00 in0.0 mm 0.00 in0.0 mm 0.00 in0.0 mm
06:42 AM 64.4°F18.0°C 60.1°F15.6°C 86% 3.1 mph NNW5.0 kmh NNW 7.6 mph12.2 kmh 30.05 in1017.6 mb 0.00 in0.0 mm 0.00 in0.0 mm 0.00 in0.0 mm
06:57 AM 64.0°F17.8°C 59.2°F15.1°C 84% 6.9 mph NNW11.1 kmh NNW 10.1 mph16.3 kmh 30.06 in1017.9 mb 0.00 in0.0 mm 0.00 in0.0 mm 0.00 in0.0 mm
07:12 AM 63.7°F17.6°C 57.7°F14.3°C 81% 5.6 mph N9.0 kmh N 10.1 mph16.3 kmh 30.06 in1017.9 mb 0.00 in0.0 mm 0.00 in0.0 mm 0.00 in0.0 mm
07:27 AM 64.0°F17.8°C 56.7°F13.7°C 77% 6.0 mph N9.7 kmh N 10.1 mph16.3 kmh 30.06 in1017.9 mb 0.00 in0.0 mm 0.00 in0.0 mm 0.00 in0.0 mm
07:42 AM 65.3°F18.5°C 58.6°F14.8°C 79% 4.7 mph N7.6 kmh N 10.1 mph16.3 kmh 30.07 in1018.3 mb 0.00 in0.0 mm 0.00 in0.0 mm 0.00 in0.0 mm
07:57 AM 65.1°F18.4°C 58.1°F14.5°C 78% 4.7 mph N7.6 kmh N 7.6 mph12.2 kmh 30.07 in1018.3 mb 0.00 in0.0 mm 0.00 in0.0 mm 0.00 in0.0 mm
08:12 AM 65.3°F18.5°C 57.9°F14.4°C 77% 2.2 mph N3.5 kmh N 7.6 mph12.2 kmh 30.07 in1018.3 mb 0.00 in0.0 mm 0.00 in0.0 mm 0.00 in0.0 mm
08:27 AM 66.4°F19.1°C 59.4°F15.2°C 78% Calm Calm 4.9 mph7.9 kmh 30.08 in1018.6 mb 0.00 in0.0 mm 0.00 in0.0 mm 0.00 in0.0 mm
08:42 AM 70.0°F21.1°C 61.3°F16.3°C 74% Calm Calm 2.5 mph4.0 kmh 30.08 in1018.6 mb 0.00 in0.0 mm 0.00 in0.0 mm 0.00 in0.0 mm
08:57 AM 70.9°F21.6°C 62.6°F17.0°C 75% Calm Calm 4.9 mph7.9 kmh 30.08 in1018.6 mb 0.00 in0.0 mm 0.00 in0.0 mm 0.00 in0.0 mm
09:12 AM 71.4°F21.9°C 63.1°F17.3°C 75% 3.1 mph SSE5.0 kmh SSE 7.6 mph12.2 kmh 30.08 in1018.6 mb 0.00 in0.0 mm 0.00 in0.0 mm 0.00 in0.0 mm
09:27 AM 71.6°F22.0°C 63.0°F17.2°C 74% 2.5 mph SE4.0 kmh SE 7.6 mph12.2 kmh 30.09 in1019.0 mb 0.00 in0.0 mm 0.00 in0.0 mm 0.00 in0.0 mm
09:42 AM 72.3°F22.4°C 63.5°F17.5°C 74% 2.5 mph SSE4.0 kmh SSE 7.6 mph12.2 kmh 30.09 in1019.0 mb 0.00 in0.0 mm 0.00 in0.0 mm 0.00 in0.0 mm
09:57 AM 73.2°F22.9°C 64.4°F18.0°C 74% 5.6 mph S9.0 kmh S 7.6 mph12.2 kmh 30.08 in1018.6 mb 0.00 in0.0 mm 0.00 in0.0 mm 0.00 in0.0 mm
10:12 AM 72.9°F22.7°C 64.4°F18.0°C 75% 6.3 mph S10.1 kmh S 12.5 mph20.1 kmh 30.08 in1018.6 mb 0.00 in0.0 mm 0.00 in0.0 mm 0.00 in0.0 mm
10:28 AM 72.3°F22.4°C 65.8°F18.8°C 80% 2.2 mph SSE3.5 kmh SSE 10.1 mph16.3 kmh 30.09 in1019.0 mb 0.00 in0.0 mm 0.00 in0.0 mm 0.00 in0.0 mm
10:43 AM 71.2°F21.8°C 63.7°F17.6°C 77% 6.0 mph SSE9.7 kmh SSE 7.6 mph12.2 kmh 30.09 in1019.0 mb 0.00 in0.0 mm 0.00 in0.0 mm 0.00 in0.0 mm
10:58 AM 71.2°F21.8°C 65.1°F18.4°C 81% 3.8 mph E6.1 kmh E 12.5 mph20.1 kmh 30.09 in1019.0 mb 0.00 in0.0 mm 0.00 in0.0 mm 0.00 in0.0 mm
11:13 AM 70.3°F21.3°C 64.2°F17.9°C 81% 4.7 mph SE7.6 kmh SE 7.6 mph12.2 kmh 30.09 in1019.0 mb 0.00 in0.0 mm 0.00 in0.0 mm 0.00 in0.0 mm
11:28 AM 70.0°F21.1°C 63.5°F17.5°C 80% 3.1 mph SSW5.0 kmh SSW 7.6 mph12.2 kmh 30.08 in1018.6 mb 0.00 in0.0 mm 0.00 in0.0 mm 0.00 in0.0 mm
11:43 AM 70.3°F21.3°C 63.9°F17.7°C 80% 2.2 mph SSW3.5 kmh SSW 7.6 mph12.2 kmh 30.08 in1018.6 mb 0.00 in0.0 mm 0.00 in0.0 mm 0.00 in0.0 mm
11:59 AM 70.3°F21.3°C 63.9°F17.7°C 80% 3.4 mph SSW5.5 kmh SSW 7.6 mph12.2 kmh 30.08 in1018.6 mb 0.00 in0.0 mm 0.00 in0.0 mm 0.00 in0.0 mm
12:14 PM 70.3°F21.3°C 63.5°F17.5°C 79% 1.3 mph S2.1 kmh S 10.1 mph16.3 kmh 30.08 in1018.6 mb 0.00 in0.0 mm 0.00 in0.0 mm 0.00 in0.0 mm
12:29 PM 70.2°F21.2°C 63.7°F17.6°C 80% 1.3 mph S2.1 kmh S 12.5 mph20.1 kmh 30.07 in1018.3 mb 0.00 in0.0 mm 0.00 in0.0 mm 0.00 in0.0 mm
12:44 PM 69.8°F21.0°C 62.6°F17.0°C 78% Calm Calm 10.1 mph16.3 kmh 30.06 in1017.9 mb 0.00 in0.0 mm 0.00 in0.0 mm 0.00 in0.0 mm
12:59 PM 72.5°F22.5°C 62.6°F17.0°C 71% 0.9 mph S1.4 kmh S 4.9 mph7.9 kmh 30.06 in1017.9 mb 0.00 in0.0 mm 0.00 in0.0 mm 0.00 in0.0 mm
01:14 PM 72.3°F22.4°C 62.1°F16.7°C 70% Calm Calm 4.9 mph7.9 kmh 30.05 in1017.6 mb 0.00 in0.0 mm 0.00 in0.0 mm 0.00 in0.0 mm
01:29 PM 73.2°F22.9°C 59.9°F15.5°C 63% 2.5 mph SSW4.0 kmh SSW 10.1 mph16.3 kmh 30.04 in1017.3 mb 0.00 in0.0 mm 0.00 in0.0 mm 0.00 in0.0 mm
01:44 PM 75.6°F24.2°C 61.2°F16.2°C 61% 11.0 mph SW17.7 kmh SW 15.0 mph24.1 kmh 30.03 in1016.9 mb 0.00 in0.0 mm 0.00 in0.0 mm 0.00 in0.0 mm
01:59 PM 75.7°F24.3°C 62.2°F16.8°C 63% 6.5 mph SSW10.5 kmh SSW 15.0 mph24.1 kmh 30.03 in1016.9 mb 0.00 in0.0 mm 0.00 in0.0 mm 0.00 in0.0 mm
02:14 PM 76.1°F24.5°C 62.6°F17.0°C 63% 8.5 mph S13.7 kmh S 20.1 mph32.3 kmh 30.03 in1016.9 mb 0.00 in0.0 mm 0.00 in0.0 mm 0.00 in0.0 mm
02:29 PM 75.9°F24.4°C 61.9°F16.6°C 62% 5.6 mph S9.0 kmh S 12.5 mph20.1 kmh 30.02 in1016.6 mb 0.00 in0.0 mm 0.00 in0.0 mm 0.00 in0.0 mm
02:44 PM 74.8°F23.8°C 61.9°F16.6°C 64% 6.3 mph E10.1 kmh E 12.5 mph20.1 kmh 30.02 in1016.6 mb 0.00 in0.0 mm 0.00 in0.0 mm 0.00 in0.0 mm
02:59 PM 74.1°F23.4°C 61.5°F16.4°C 65% 3.4 mph SW5.5 kmh SW 12.5 mph20.1 kmh 30.01 in1016.3 mb 0.00 in0.0 mm 0.00 in0.0 mm 0.00 in0.0 mm
03:14 PM 72.9°F22.7°C 61.7°F16.5°C 68% 6.0 mph E9.7 kmh E 12.5 mph20.1 kmh 30.02 in1016.6 mb 0.00 in0.0 mm 0.00 in0.0 mm 0.00 in0.0 mm
03:29 PM 72.9°F22.7°C 61.3°F16.3°C 67% 2.2 mph S3.5 kmh S 12.5 mph20.1 kmh 30.01 in1016.3 mb 0.00 in0.0 mm 0.00 in0.0 mm 0.00 in0.0 mm
03:45 PM 72.9°F22.7°C 60.4°F15.8°C 65% 2.2 mph SSW3.5 kmh SSW 12.5 mph20.1 kmh 30.01 in1016.3 mb 0.00 in0.0 mm 0.00 in0.0 mm 0.00 in0.0 mm
04:00 PM 73.8°F23.2°C 58.5°F14.7°C 59% 1.8 mph SW2.9 kmh SW 17.4 mph28.0 kmh 30.01 in1016.3 mb 0.00 in0.0 mm 0.00 in0.0 mm 0.00 in0.0 mm
04:15 PM 75.7°F24.3°C 61.3°F16.3°C 61% 6.0 mph E9.7 kmh E 12.5 mph20.1 kmh 30.01 in1016.3 mb 0.00 in0.0 mm 0.00 in0.0 mm 0.00 in0.0 mm
04:30 PM 75.2°F24.0°C 61.7°F16.5°C 63% 2.5 mph SE4.0 kmh SE 15.0 mph24.1 kmh 30.01 in1016.3 mb 0.00 in0.0 mm 0.00 in0.0 mm 0.00 in0.0 mm
04:45 PM 74.8°F23.8°C 61.0°F16.1°C 62% 6.0 mph S9.7 kmh S 12.5 mph20.1 kmh 30.01 in1016.3 mb 0.00 in0.0 mm 0.00 in0.0 mm 0.00 in0.0 mm
05:00 PM 74.3°F23.5°C 61.7°F16.5°C 65% 2.5 mph ESE4.0 kmh ESE 10.1 mph16.3 kmh 30.01 in1016.3 mb 0.00 in0.0 mm 0.00 in0.0 mm 0.00 in0.0 mm
05:15 PM 73.0°F22.8°C 61.5°F16.4°C 67% 6.0 mph SE9.7 kmh SE 12.5 mph20.1 kmh 30.01 in1016.3 mb 0.00 in0.0 mm 0.00 in0.0 mm 0.00 in0.0 mm
05:30 PM 72.3°F22.4°C 61.5°F16.4°C 69% 3.8 mph E6.1 kmh E 12.5 mph20.1 kmh 30.01 in1016.3 mb 0.00 in0.0 mm 0.00 in0.0 mm 0.00 in0.0 mm
05:45 PM 71.6°F22.0°C 61.3°F16.3°C 70% 4.7 mph SE7.6 kmh SE 10.1 mph16.3 kmh 30.01 in1016.3 mb 0.00 in0.0 mm 0.00 in0.0 mm 0.00 in0.0 mm
06:00 PM 71.2°F21.8°C 61.0°F16.1°C 70% 1.6 mph S2.6 kmh S 10.1 mph16.3 kmh 30.01 in1016.3 mb 0.00 in0.0 mm 0.00 in0.0 mm 0.00 in0.0 mm
06:15 PM 70.9°F21.6°C 61.0°F16.1°C 71% 4.5 mph S7.2 kmh S 7.6 mph12.2 kmh 30.01 in1016.3 mb 0.00 in0.0 mm 0.00 in0.0 mm 0.00 in0.0 mm
06:30 PM 70.5°F21.4°C 61.9°F16.6°C 74% Calm Calm 4.9 mph7.9 kmh 30.00 in1015.9 mb 0.00 in0.0 mm 0.00 in0.0 mm 0.00 in0.0 mm
06:45 PM 69.8°F21.0°C 61.9°F16.6°C 76% 2.5 mph SSE4.0 kmh SSE 7.6 mph12.2 kmh 30.01 in1016.3 mb 0.00 in0.0 mm 0.00 in0.0 mm 0.00 in0.0 mm
07:00 PM 68.7°F20.4°C 61.5°F16.4°C 78% 0.9 mph S1.4 kmh S 7.6 mph12.2 kmh 30.01 in1016.3 mb 0.00 in0.0 mm 0.00 in0.0 mm 0.00 in0.0 mm
07:15 PM 68.0°F20.0°C 61.2°F16.2°C 79% 0.7 mph NNW1.1 kmh NNW 2.5 mph4.0 kmh 30.01 in1016.3 mb 0.00 in0.0 mm 0.00 in0.0 mm 0.00 in0.0 mm
07:30 PM 67.3°F19.6°C 61.0°F16.1°C 80% 3.1 mph NW5.0 kmh NW 4.9 mph7.9 kmh 30.01 in1016.3 mb 0.00 in0.0 mm 0.00 in0.0 mm 0.00 in0.0 mm
07:45 PM 66.6°F19.2°C 60.6°F15.9°C 81% 0.2 mph N0.3 kmh N 4.9 mph7.9 kmh 30.02 in1016.6 mb 0.00 in0.0 mm 0.00 in0.0 mm 0.00 in0.0 mm
08:00 PM 65.8°F18.8°C 60.6°F15.9°C 83% 2.2 mph NW3.5 kmh NW 4.9 mph7.9 kmh 30.01 in1016.3 mb 0.00 in0.0 mm 0.00 in0.0 mm 0.00 in0.0 mm
08:15 PM 65.3°F18.5°C 59.7°F15.4°C 82% 4.7 mph N7.6 kmh N 7.6 mph12.2 kmh 30.02 in1016.6 mb 0.00 in0.0 mm 0.00 in0.0 mm 0.00 in0.0 mm
08:30 PM 65.1°F18.4°C 59.5°F15.3°C 82% 0.2 mph NW0.3 kmh NW 7.6 mph12.2 kmh 30.03 in1016.9 mb 0.00 in0.0 mm 0.00 in0.0 mm 0.00 in0.0 mm
08:45 PM 64.8°F18.2°C 59.2°F15.1°C 82% 2.5 mph NNW4.0 kmh NNW 7.6 mph12.2 kmh 30.03 in1016.9 mb 0.00 in0.0 mm 0.00 in0.0 mm 0.00 in0.0 mm
09:00 PM 64.6°F18.1°C 59.0°F15.0°C 82% 4.0 mph NNW6.4 kmh NNW 7.6 mph12.2 kmh 30.03 in1016.9 mb 0.00 in0.0 mm 0.00 in0.0 mm 0.00 in0.0 mm
09:15 PM 64.6°F18.1°C 58.6°F14.8°C 81% 2.5 mph NNW4.0 kmh NNW 4.9 mph7.9 kmh 30.03 in1016.9 mb 0.00 in0.0 mm 0.00 in0.0 mm 0.00 in0.0 mm
09:30 PM 64.4°F18.0°C 58.8°F14.9°C 82% 2.9 mph NNW4.7 kmh NNW 4.9 mph7.9 kmh 30.04 in1017.3 mb 0.00 in0.0 mm 0.00 in0.0 mm 0.00 in0.0 mm
09:45 PM 64.0°F17.8°C 59.2°F15.1°C 84% 3.8 mph NNW6.1 kmh NNW 7.6 mph12.2 kmh 30.04 in1017.3 mb 0.00 in0.0 mm 0.00 in0.0 mm 0.00 in0.0 mm
10:00 PM 63.7°F17.6°C 58.1°F14.5°C 82% 1.8 mph NNW2.9 kmh NNW 7.6 mph12.2 kmh 30.04 in1017.3 mb 0.00 in0.0 mm 0.00 in0.0 mm 0.00 in0.0 mm
10:15 PM 64.2°F17.9°C 59.0°F15.0°C 83% 3.4 mph NNW5.5 kmh NNW 10.1 mph16.3 kmh 30.04 in1017.3 mb 0.00 in0.0 mm 0.00 in0.0 mm 0.00 in0.0 mm
10:30 PM 64.4°F18.0°C 59.2°F15.1°C 83% 4.9 mph NNW7.9 kmh NNW 7.6 mph12.2 kmh 30.04 in1017.3 mb 0.00 in0.0 mm 0.00 in0.0 mm 0.00 in0.0 mm
10:45 PM 64.2°F17.9°C 58.6°F14.8°C 82% 7.6 mph N12.2 kmh N 10.1 mph16.3 kmh 30.03 in1016.9 mb 0.00 in0.0 mm 0.00 in0.0 mm 0.00 in0.0 mm
11:01 PM 64.2°F17.9°C 59.0°F15.0°C 83% 2.5 mph NNW4.0 kmh NNW 10.1 mph16.3 kmh 30.03 in1016.9 mb 0.00 in0.0 mm 0.00 in0.0 mm 0.00 in0.0 mm
11:16 PM 64.0°F17.8°C 58.1°F14.5°C 81% 2.9 mph N4.7 kmh N 4.9 mph7.9 kmh 30.03 in1016.9 mb 0.00 in0.0 mm 0.00 in0.0 mm 0.00 in0.0 mm
11:31 PM 64.0°F17.8°C 57.7°F14.3°C 80% 2.9 mph NW4.7 kmh NW 4.9 mph7.9 kmh 30.03 in1016.9 mb 0.00 in0.0 mm 0.00 in0.0 mm 0.00 in0.0 mm
11:46 PM 64.4°F18.0°C 58.1°F14.5°C 80% 3.8 mph NNW6.1 kmh NNW 7.6 mph12.2 kmh 30.02 in1016.6 mb 0.00 in0.0 mm 0.00 in0.0 mm 0.00 in0.0 mm